sensor_id;sensor_type;location;lat;lon;timestamp;P1;durP1;ratioP1;P2;durP2;ratioP2
5718;SDS011;2884;47.734;9.244;2022-09-25T00:01:07;20.13;;;18.80;;
5718;SDS011;2884;47.734;9.244;2022-09-25T00:03:33;22.97;;;21.20;;
5718;SDS011;2884;47.734;9.244;2022-09-25T00:05:59;21.40;;;19.00;;
5718;SDS011;2884;47.734;9.244;2022-09-25T00:08:29;22.37;;;20.50;;
5718;SDS011;2884;47.734;9.244;2022-09-25T00:10:55;22.70;;;21.00;;
5718;SDS011;2884;47.734;9.244;2022-09-25T00:13:20;22.00;;;19.67;;
5718;SDS011;2884;47.734;9.244;2022-09-25T00:15:53;21.93;;;19.80;;
5718;SDS011;2884;47.734;9.244;2022-09-25T00:18:20;21.03;;;19.33;;
5718;SDS011;2884;47.734;9.244;2022-09-25T00:21:06;21.03;;;19.43;;
5718;SDS011;2884;47.734;9.244;2022-09-25T00:23:33;21.30;;;19.50;;
5718;SDS011;2884;47.734;9.244;2022-09-25T00:26:00;23.63;;;20.23;;
5718;SDS011;2884;47.734;9.244;2022-09-25T00:28:27;20.63;;;18.93;;
5718;SDS011;2884;47.734;9.244;2022-09-25T00:30:55;20.30;;;18.80;;
5718;SDS011;2884;47.734;9.244;2022-09-25T00:33:21;21.03;;;19.43;;
5718;SDS011;2884;47.734;9.244;2022-09-25T00:35:47;20.63;;;19.03;;
5718;SDS011;2884;47.734;9.244;2022-09-25T00:38:13;20.93;;;19.13;;
5718;SDS011;2884;47.734;9.244;2022-09-25T00:40:39;22.73;;;20.83;;
5718;SDS011;2884;47.734;9.244;2022-09-25T00:43:08;23.77;;;21.53;;
5718;SDS011;2884;47.734;9.244;2022-09-25T00:45:54;21.47;;;19.13;;
5718;SDS011;2884;47.734;9.244;2022-09-25T00:48:20;21.03;;;19.43;;
5718;SDS011;2884;47.734;9.244;2022-09-25T00:50:47;22.10;;;20.40;;
5718;SDS011;2884;47.734;9.244;2022-09-25T00:53:17;20.13;;;18.80;;
5718;SDS011;2884;47.734;9.244;2022-09-25T00:55:46;19.77;;;18.47;;
5718;SDS011;2884;47.734;9.244;2022-09-25T00:58:12;20.90;;;19.43;;
5718;SDS011;2884;47.734;9.244;2022-09-25T01:00:39;26.40;;;18.93;;
5718;SDS011;2884;47.734;9.244;2022-09-25T01:03:05;21.07;;;19.27;;
5718;SDS011;2884;47.734;9.244;2022-09-25T01:05:32;20.20;;;18.63;;
5718;SDS011;2884;47.734;9.244;2022-09-25T01:08:00;19.97;;;18.30;;
5718;SDS011;2884;47.734;9.244;2022-09-25T01:10:26;19.80;;;18.50;;
5718;SDS011;2884;47.734;9.244;2022-09-25T01:12:53;22.83;;;21.13;;
5718;SDS011;2884;47.734;9.244;2022-09-25T01:15:22;20.27;;;18.87;;
5718;SDS011;2884;47.734;9.244;2022-09-25T01:29:38;20.87;;;19.27;;
5718;SDS011;2884;47.734;9.244;2022-09-25T01:32:19;21.73;;;19.73;;
5718;SDS011;2884;47.734;9.244;2022-09-25T01:35:03;21.90;;;20.20;;
5718;SDS011;2884;47.734;9.244;2022-09-25T01:37:44;23.60;;;21.37;;
5718;SDS011;2884;47.734;9.244;2022-09-25T01:43:06;20.60;;;19.10;;
5718;SDS011;2884;47.734;9.244;2022-09-25T01:45:47;20.10;;;18.70;;
5718;SDS011;2884;47.734;9.244;2022-09-25T01:48:17;37.63;;;18.07;;
5718;SDS011;2884;47.734;9.244;2022-09-25T01:53:27;20.30;;;18.70;;
5718;SDS011;2884;47.734;9.244;2022-09-25T01:55:57;19.97;;;18.20;;
5718;SDS011;2884;47.734;9.244;2022-09-25T01:58:38;20.70;;;18.83;;
5718;SDS011;2884;47.734;9.244;2022-09-25T02:01:08;20.57;;;19.27;;
5718;SDS011;2884;47.734;9.244;2022-09-25T02:03:45;21.30;;;19.80;;
5718;SDS011;2884;47.734;9.244;2022-09-25T02:06:15;24.17;;;22.07;;
5718;SDS011;2884;47.734;9.244;2022-09-25T02:08:46;22.80;;;21.13;;
5718;SDS011;2884;47.734;9.244;2022-09-25T02:11:18;21.50;;;19.90;;
5718;SDS011;2884;47.734;9.244;2022-09-25T02:13:54;22.93;;;21.23;;
5718;SDS011;2884;47.734;9.244;2022-09-25T02:16:26;22.30;;;20.70;;
5718;SDS011;2884;47.734;9.244;2022-09-25T02:18:56;21.67;;;20.13;;
5718;SDS011;2884;47.734;9.244;2022-09-25T02:24:42;21.10;;;19.60;;
5718;SDS011;2884;47.734;9.244;2022-09-25T02:27:15;21.40;;;19.90;;
5718;SDS011;2884;47.734;9.244;2022-09-25T02:29:44;20.93;;;19.13;;
5718;SDS011;2884;47.734;9.244;2022-09-25T02:32:13;21.20;;;19.40;;
5718;SDS011;2884;47.734;9.244;2022-09-25T02:34:40;20.07;;;18.60;;
5718;SDS011;2884;47.734;9.244;2022-09-25T02:37:12;20.43;;;19.03;;
5718;SDS011;2884;47.734;9.244;2022-09-25T02:39:42;21.27;;;19.33;;
5718;SDS011;2884;47.734;9.244;2022-09-25T02:47:42;20.87;;;19.17;;
5718;SDS011;2884;47.734;9.244;2022-09-25T02:50:28;20.70;;;19.10;;
5718;SDS011;2884;47.734;9.244;2022-09-25T02:55:57;20.70;;;19.20;;
5718;SDS011;2884;47.734;9.244;2022-09-25T03:01:04;20.53;;;19.03;;
5718;SDS011;2884;47.734;9.244;2022-09-25T03:03:31;20.87;;;19.27;;
5718;SDS011;2884;47.734;9.244;2022-09-25T03:05:58;23.00;;;21.07;;
5718;SDS011;2884;47.734;9.244;2022-09-25T03:08:25;23.17;;;21.40;;
5718;SDS011;2884;47.734;9.244;2022-09-25T03:11:15;23.43;;;21.30;;
5718;SDS011;2884;47.734;9.244;2022-09-25T03:14:01;23.63;;;21.37;;
5718;SDS011;2884;47.734;9.244;2022-09-25T03:16:32;23.67;;;21.43;;
5718;SDS011;2884;47.734;9.244;2022-09-25T03:19:05;22.60;;;20.60;;
5718;SDS011;2884;47.734;9.244;2022-09-25T03:21:31;24.47;;;21.70;;
5718;SDS011;2884;47.734;9.244;2022-09-25T03:23:58;38.93;;;23.57;;
5718;SDS011;2884;47.734;9.244;2022-09-25T03:26:24;32.77;;;23.40;;
5718;SDS011;2884;47.734;9.244;2022-09-25T03:28:51;26.70;;;22.87;;
5718;SDS011;2884;47.734;9.244;2022-09-25T03:31:18;26.10;;;23.40;;
5718;SDS011;2884;47.734;9.244;2022-09-25T03:33:44;31.13;;;24.60;;
5718;SDS011;2884;47.734;9.244;2022-09-25T03:38:40;33.93;;;24.37;;
5718;SDS011;2884;47.734;9.244;2022-09-25T03:41:07;31.80;;;24.87;;
5718;SDS011;2884;47.734;9.244;2022-09-25T03:43:34;27.70;;;24.57;;
5718;SDS011;2884;47.734;9.244;2022-09-25T03:46:03;33.90;;;25.67;;
5718;SDS011;2884;47.734;9.244;2022-09-25T03:48:29;30.60;;;24.20;;
5718;SDS011;2884;47.734;9.244;2022-09-25T03:50:55;27.90;;;23.50;;
5718;SDS011;2884;47.734;9.244;2022-09-25T03:53:21;31.70;;;24.80;;
5718;SDS011;2884;47.734;9.244;2022-09-25T03:55:49;27.57;;;24.67;;
5718;SDS011;2884;47.734;9.244;2022-09-25T03:58:16;26.20;;;23.53;;
5718;SDS011;2884;47.734;9.244;2022-09-25T04:00:42;27.00;;;23.90;;
5718;SDS011;2884;47.734;9.244;2022-09-25T04:03:08;27.60;;;24.87;;
5718;SDS011;2884;47.734;9.244;2022-09-25T04:05:34;27.03;;;24.60;;
5718;SDS011;2884;47.734;9.244;2022-09-25T04:07:59;31.33;;;23.80;;
5718;SDS011;2884;47.734;9.244;2022-09-25T04:10:26;25.40;;;23.10;;
5718;SDS011;2884;47.734;9.244;2022-09-25T04:12:52;27.00;;;24.73;;
5718;SDS011;2884;47.734;9.244;2022-09-25T04:15:21;28.03;;;25.23;;
5718;SDS011;2884;47.734;9.244;2022-09-25T04:17:47;28.33;;;25.40;;
5718;SDS011;2884;47.734;9.244;2022-09-25T04:20:13;25.40;;;23.23;;
5718;SDS011;2884;47.734;9.244;2022-09-25T04:22:39;25.77;;;23.23;;
5718;SDS011;2884;47.734;9.244;2022-09-25T04:25:04;27.97;;;25.07;;
5718;SDS011;2884;47.734;9.244;2022-09-25T04:27:30;28.63;;;25.70;;
5718;SDS011;2884;47.734;9.244;2022-09-25T04:29:57;26.90;;;24.40;;
5718;SDS011;2884;47.734;9.244;2022-09-25T04:32:22;29.27;;;24.53;;
5718;SDS011;2884;47.734;9.244;2022-09-25T04:35:10;36.50;;;25.50;;
5718;SDS011;2884;47.734;9.244;2022-09-25T04:37:38;27.07;;;24.33;;
5718;SDS011;2884;47.734;9.244;2022-09-25T04:40:04;31.20;;;24.20;;
5718;SDS011;2884;47.734;9.244;2022-09-25T04:42:30;34.67;;;25.07;;
5718;SDS011;2884;47.734;9.244;2022-09-25T04:44:56;31.37;;;25.43;;
5718;SDS011;2884;47.734;9.244;2022-09-25T04:47:22;29.80;;;25.90;;
5718;SDS011;2884;47.734;9.244;2022-09-25T04:49:48;32.47;;;27.17;;
5718;SDS011;2884;47.734;9.244;2022-09-25T04:52:14;29.87;;;26.67;;
5718;SDS011;2884;47.734;9.244;2022-09-25T04:54:41;32.40;;;25.70;;
5718;SDS011;2884;47.734;9.244;2022-09-25T04:57:14;31.97;;;26.27;;
5718;SDS011;2884;47.734;9.244;2022-09-25T04:59:43;33.13;;;27.43;;
5718;SDS011;2884;47.734;9.244;2022-09-25T05:02:10;32.47;;;27.50;;
5718;SDS011;2884;47.734;9.244;2022-09-25T05:04:36;33.80;;;26.73;;
5718;SDS011;2884;47.734;9.244;2022-09-25T05:07:02;35.70;;;26.83;;
5718;SDS011;2884;47.734;9.244;2022-09-25T05:09:28;28.20;;;25.17;;
5718;SDS011;2884;47.734;9.244;2022-09-25T05:12:06;37.43;;;27.60;;
5718;SDS011;2884;47.734;9.244;2022-09-25T05:14:40;31.03;;;27.83;;
5718;SDS011;2884;47.734;9.244;2022-09-25T05:17:06;30.17;;;27.17;;
5718;SDS011;2884;47.734;9.244;2022-09-25T05:19:35;31.20;;;25.90;;
5718;SDS011;2884;47.734;9.244;2022-09-25T05:25:03;31.13;;;27.57;;
5718;SDS011;2884;47.734;9.244;2022-09-25T05:31:57;29.17;;;26.23;;
5718;SDS011;2884;47.734;9.244;2022-09-25T05:35:21;27.37;;;24.97;;
5718;SDS011;2884;47.734;9.244;2022-09-25T05:37:48;25.97;;;23.57;;
5718;SDS011;2884;47.734;9.244;2022-09-25T05:40:14;26.80;;;24.20;;
5718;SDS011;2884;47.734;9.244;2022-09-25T05:42:40;25.70;;;23.10;;
5718;SDS011;2884;47.734;9.244;2022-09-25T05:45:11;25.23;;;22.93;;
5718;SDS011;2884;47.734;9.244;2022-09-25T05:47:41;26.53;;;24.03;;
5718;SDS011;2884;47.734;9.244;2022-09-25T05:50:07;27.27;;;24.57;;
5718;SDS011;2884;47.734;9.244;2022-09-25T05:52:35;25.03;;;22.63;;
5718;SDS011;2884;47.734;9.244;2022-09-25T05:55:01;25.70;;;23.50;;
5718;SDS011;2884;47.734;9.244;2022-09-25T05:57:34;26.30;;;24.10;;
5718;SDS011;2884;47.734;9.244;2022-09-25T06:00:01;27.20;;;24.60;;
5718;SDS011;2884;47.734;9.244;2022-09-25T06:02:28;25.03;;;22.80;;
5718;SDS011;2884;47.734;9.244;2022-09-25T06:04:54;28.10;;;25.40;;
5718;SDS011;2884;47.734;9.244;2022-09-25T06:07:19;28.23;;;25.30;;
5718;SDS011;2884;47.734;9.244;2022-09-25T06:09:45;29.77;;;26.67;;
5718;SDS011;2884;47.734;9.244;2022-09-25T06:12:11;28.53;;;25.63;;
5718;SDS011;2884;47.734;9.244;2022-09-25T06:14:36;28.03;;;25.10;;
5718;SDS011;2884;47.734;9.244;2022-09-25T06:17:02;32.37;;;28.80;;
5718;SDS011;2884;47.734;9.244;2022-09-25T06:19:28;30.50;;;27.23;;
5718;SDS011;2884;47.734;9.244;2022-09-25T06:21:55;31.90;;;28.00;;
5718;SDS011;2884;47.734;9.244;2022-09-25T06:24:21;30.47;;;26.07;;
5718;SDS011;2884;47.734;9.244;2022-09-25T06:26:47;30.13;;;27.00;;
5718;SDS011;2884;47.734;9.244;2022-09-25T06:29:13;28.17;;;25.17;;
5718;SDS011;2884;47.734;9.244;2022-09-25T06:31:38;29.83;;;26.40;;
5718;SDS011;2884;47.734;9.244;2022-09-25T06:34:04;28.10;;;25.03;;
5718;SDS011;2884;47.734;9.244;2022-09-25T06:36:30;27.80;;;25.10;;
5718;SDS011;2884;47.734;9.244;2022-09-25T06:38:56;28.37;;;25.57;;
5718;SDS011;2884;47.734;9.244;2022-09-25T06:41:22;28.13;;;25.00;;
5718;SDS011;2884;47.734;9.244;2022-09-25T06:43:51;28.90;;;25.20;;
5718;SDS011;2884;47.734;9.244;2022-09-25T06:46:17;30.07;;;24.30;;
5718;SDS011;2884;47.734;9.244;2022-09-25T06:48:49;26.37;;;23.60;;
5718;SDS011;2884;47.734;9.244;2022-09-25T06:51:19;25.70;;;23.00;;
5718;SDS011;2884;47.734;9.244;2022-09-25T06:53:45;27.00;;;24.23;;
5718;SDS011;2884;47.734;9.244;2022-09-25T06:56:11;25.10;;;22.63;;
5718;SDS011;2884;47.734;9.244;2022-09-25T06:58:36;25.60;;;23.23;;
5718;SDS011;2884;47.734;9.244;2022-09-25T07:01:02;24.83;;;22.33;;
5718;SDS011;2884;47.734;9.244;2022-09-25T07:03:28;21.30;;;19.40;;
5718;SDS011;2884;47.734;9.244;2022-09-25T07:06:09;28.13;;;22.60;;
5718;SDS011;2884;47.734;9.244;2022-09-25T07:08:36;26.57;;;23.77;;
5718;SDS011;2884;47.734;9.244;2022-09-25T07:11:02;33.47;;;26.30;;
5718;SDS011;2884;47.734;9.244;2022-09-25T07:13:29;26.03;;;23.10;;
5718;SDS011;2884;47.734;9.244;2022-09-25T07:15:57;22.90;;;20.60;;
5718;SDS011;2884;47.734;9.244;2022-09-25T07:18:26;21.73;;;19.70;;
5718;SDS011;2884;47.734;9.244;2022-09-25T07:20:57;19.87;;;18.27;;
5718;SDS011;2884;47.734;9.244;2022-09-25T07:23:27;18.70;;;17.00;;
5718;SDS011;2884;47.734;9.244;2022-09-25T07:25:53;20.73;;;18.67;;
5718;SDS011;2884;47.734;9.244;2022-09-25T07:28:19;19.40;;;17.50;;
5718;SDS011;2884;47.734;9.244;2022-09-25T07:30:45;18.40;;;16.60;;
5718;SDS011;2884;47.734;9.244;2022-09-25T07:33:11;18.60;;;16.73;;
5718;SDS011;2884;47.734;9.244;2022-09-25T07:35:37;17.77;;;16.07;;
5718;SDS011;2884;47.734;9.244;2022-09-25T07:38:02;17.07;;;15.37;;
5718;SDS011;2884;47.734;9.244;2022-09-25T07:40:29;16.57;;;14.97;;
5718;SDS011;2884;47.734;9.244;2022-09-25T07:43:03;16.90;;;15.30;;
5718;SDS011;2884;47.734;9.244;2022-09-25T07:45:29;17.00;;;14.30;;
5718;SDS011;2884;47.734;9.244;2022-09-25T07:47:55;15.60;;;14.10;;
5718;SDS011;2884;47.734;9.244;2022-09-25T07:50:21;15.80;;;14.10;;
5718;SDS011;2884;47.734;9.244;2022-09-25T07:52:47;15.90;;;14.20;;
5718;SDS011;2884;47.734;9.244;2022-09-25T07:55:13;14.87;;;13.23;;
5718;SDS011;2884;47.734;9.244;2022-09-25T07:57:38;14.70;;;13.20;;
5718;SDS011;2884;47.734;9.244;2022-09-25T08:00:06;14.37;;;12.90;;
5718;SDS011;2884;47.734;9.244;2022-09-25T08:02:32;17.53;;;13.70;;
5718;SDS011;2884;47.734;9.244;2022-09-25T08:04:59;17.67;;;13.70;;
5718;SDS011;2884;47.734;9.244;2022-09-25T08:07:28;15.23;;;13.63;;
5718;SDS011;2884;47.734;9.244;2022-09-25T08:09:54;18.27;;;14.23;;
5718;SDS011;2884;47.734;9.244;2022-09-25T08:12:20;17.67;;;13.23;;
5718;SDS011;2884;47.734;9.244;2022-09-25T08:14:50;13.33;;;11.73;;
5718;SDS011;2884;47.734;9.244;2022-09-25T08:17:16;13.63;;;11.90;;
5718;SDS011;2884;47.734;9.244;2022-09-25T08:19:41;13.30;;;11.73;;
5718;SDS011;2884;47.734;9.244;2022-09-25T08:22:07;13.57;;;11.80;;
5718;SDS011;2884;47.734;9.244;2022-09-25T08:24:33;12.50;;;11.20;;
5718;SDS011;2884;47.734;9.244;2022-09-25T08:26:59;14.50;;;11.57;;
5718;SDS011;2884;47.734;9.244;2022-09-25T08:29:25;11.43;;;10.23;;
5718;SDS011;2884;47.734;9.244;2022-09-25T08:31:51;12.00;;;10.23;;
5718;SDS011;2884;47.734;9.244;2022-09-25T08:34:17;11.67;;;9.37;;
5718;SDS011;2884;47.734;9.244;2022-09-25T08:36:43;12.63;;;9.77;;
5718;SDS011;2884;47.734;9.244;2022-09-25T08:39:09;11.00;;;9.37;;
5718;SDS011;2884;47.734;9.244;2022-09-25T08:41:45;11.73;;;9.57;;
5718;SDS011;2884;47.734;9.244;2022-09-25T08:44:17;14.60;;;9.60;;
5718;SDS011;2884;47.734;9.244;2022-09-25T08:46:54;9.57;;;8.67;;
5718;SDS011;2884;47.734;9.244;2022-09-25T08:50:24;11.10;;;10.10;;
5718;SDS011;2884;47.734;9.244;2022-09-25T08:52:34;9.67;;;8.70;;
5718;SDS011;2884;47.734;9.244;2022-09-25T08:55:00;9.07;;;8.27;;
5718;SDS011;2884;47.734;9.244;2022-09-25T08:57:28;10.30;;;8.53;;
5718;SDS011;2884;47.734;9.244;2022-09-25T09:00:00;8.03;;;7.43;;
5718;SDS011;2884;47.734;9.244;2022-09-25T09:02:36;9.87;;;8.27;;
5718;SDS011;2884;47.734;9.244;2022-09-25T09:05:06;7.23;;;6.60;;
5718;SDS011;2884;47.734;9.244;2022-09-25T09:08:01;8.07;;;7.27;;
5718;SDS011;2884;47.734;9.244;2022-09-25T09:15:51;6.80;;;6.10;;
5718;SDS011;2884;47.734;9.244;2022-09-25T09:18:22;7.43;;;6.73;;
5718;SDS011;2884;47.734;9.244;2022-09-25T09:32:01;12.60;;;7.00;;
5718;SDS011;2884;47.734;9.244;2022-09-25T09:42:33;6.10;;;5.50;;
5718;SDS011;2884;47.734;9.244;2022-09-25T09:45:30;7.00;;;6.30;;
5718;SDS011;2884;47.734;9.244;2022-09-25T09:48:03;10.57;;;7.53;;
5718;SDS011;2884;47.734;9.244;2022-09-25T09:50:42;8.90;;;8.00;;
5718;SDS011;2884;47.734;9.244;2022-09-25T09:53:19;9.73;;;7.23;;
5718;SDS011;2884;47.734;9.244;2022-09-25T09:55:53;9.00;;;8.10;;
5718;SDS011;2884;47.734;9.244;2022-09-25T09:58:28;8.40;;;7.60;;
5718;SDS011;2884;47.734;9.244;2022-09-25T10:01:07;9.30;;;8.20;;
5718;SDS011;2884;47.734;9.244;2022-09-25T10:06:48;6.60;;;5.90;;
5718;SDS011;2884;47.734;9.244;2022-09-25T10:09:17;6.50;;;5.90;;
5718;SDS011;2884;47.734;9.244;2022-09-25T10:11:47;6.73;;;5.33;;
5718;SDS011;2884;47.734;9.244;2022-09-25T10:14:17;5.70;;;5.20;;
5718;SDS011;2884;47.734;9.244;2022-09-25T10:16:47;6.17;;;5.20;;
5718;SDS011;2884;47.734;9.244;2022-09-25T10:19:18;5.30;;;4.80;;
5718;SDS011;2884;47.734;9.244;2022-09-25T10:21:47;6.00;;;5.50;;
5718;SDS011;2884;47.734;9.244;2022-09-25T10:27:21;6.40;;;5.13;;
5718;SDS011;2884;47.734;9.244;2022-09-25T10:30:03;6.03;;;5.43;;
5718;SDS011;2884;47.734;9.244;2022-09-25T10:32:29;4.77;;;4.27;;
5718;SDS011;2884;47.734;9.244;2022-09-25T10:34:58;7.00;;;5.50;;
5718;SDS011;2884;47.734;9.244;2022-09-25T10:37:23;6.17;;;5.53;;
5718;SDS011;2884;47.734;9.244;2022-09-25T10:40:06;6.70;;;5.60;;
5718;SDS011;2884;47.734;9.244;2022-09-25T10:42:41;4.80;;;4.40;;
5718;SDS011;2884;47.734;9.244;2022-09-25T10:45:41;5.20;;;4.40;;
5718;SDS011;2884;47.734;9.244;2022-09-25T10:48:00;6.50;;;4.53;;
5718;SDS011;2884;47.734;9.244;2022-09-25T10:50:51;3.90;;;3.60;;
5718;SDS011;2884;47.734;9.244;2022-09-25T10:53:30;4.43;;;3.60;;
5718;SDS011;2884;47.734;9.244;2022-09-25T10:56:04;4.13;;;3.83;;
5718;SDS011;2884;47.734;9.244;2022-09-25T10:58:52;5.40;;;4.03;;
5718;SDS011;2884;47.734;9.244;2022-09-25T11:01:21;4.20;;;3.80;;
5718;SDS011;2884;47.734;9.244;2022-09-25T11:03:54;2.93;;;2.73;;
5718;SDS011;2884;47.734;9.244;2022-09-25T11:11:38;2.37;;;2.27;;
5718;SDS011;2884;47.734;9.244;2022-09-25T11:14:06;3.00;;;2.80;;
5718;SDS011;2884;47.734;9.244;2022-09-25T11:16:40;2.80;;;2.60;;
5718;SDS011;2884;47.734;9.244;2022-09-25T11:19:53;2.80;;;2.50;;
5718;SDS011;2884;47.734;9.244;2022-09-25T11:27:40;3.20;;;2.87;;
5718;SDS011;2884;47.734;9.244;2022-09-25T11:30:10;3.30;;;3.00;;
5718;SDS011;2884;47.734;9.244;2022-09-25T11:44:22;3.93;;;3.27;;
5718;SDS011;2884;47.734;9.244;2022-09-25T11:47:17;3.33;;;3.10;;
5718;SDS011;2884;47.734;9.244;2022-09-25T11:49:47;8.10;;;2.90;;
5718;SDS011;2884;47.734;9.244;2022-09-25T11:52:29;4.60;;;3.13;;
5718;SDS011;2884;47.734;9.244;2022-09-25T12:09:04;4.03;;;3.63;;
5718;SDS011;2884;47.734;9.244;2022-09-25T12:22:15;3.53;;;3.23;;
5718;SDS011;2884;47.734;9.244;2022-09-25T12:38:17;3.57;;;3.20;;
5718;SDS011;2884;47.734;9.244;2022-09-25T12:43:17;3.80;;;3.43;;
5718;SDS011;2884;47.734;9.244;2022-09-25T12:45:50;5.50;;;3.33;;
5718;SDS011;2884;47.734;9.244;2022-09-25T12:48:30;4.30;;;3.90;;
5718;SDS011;2884;47.734;9.244;2022-09-25T12:51:15;3.77;;;3.20;;
5718;SDS011;2884;47.734;9.244;2022-09-25T12:53:49;4.90;;;3.50;;
5718;SDS011;2884;47.734;9.244;2022-09-25T13:09:42;3.10;;;2.80;;
5718;SDS011;2884;47.734;9.244;2022-09-25T13:15:00;3.40;;;2.50;;
5718;SDS011;2884;47.734;9.244;2022-09-25T13:17:26;3.10;;;2.90;;
5718;SDS011;2884;47.734;9.244;2022-09-25T13:19:52;3.93;;;3.13;;
5718;SDS011;2884;47.734;9.244;2022-09-25T13:22:19;2.67;;;2.47;;
5718;SDS011;2884;47.734;9.244;2022-09-25T13:24:56;2.40;;;2.30;;
5718;SDS011;2884;47.734;9.244;2022-09-25T13:27:27;5.00;;;3.00;;
5718;SDS011;2884;47.734;9.244;2022-09-25T13:30:03;2.87;;;2.67;;
5718;SDS011;2884;47.734;9.244;2022-09-25T13:32:30;3.30;;;3.00;;
5718;SDS011;2884;47.734;9.244;2022-09-25T13:35:03;2.83;;;2.63;;
5718;SDS011;2884;47.734;9.244;2022-09-25T13:37:34;3.17;;;2.90;;
5718;SDS011;2884;47.734;9.244;2022-09-25T13:40:06;3.97;;;2.87;;
5718;SDS011;2884;47.734;9.244;2022-09-25T13:48:48;3.67;;;3.37;;
5718;SDS011;2884;47.734;9.244;2022-09-25T13:56:24;6.87;;;3.60;;
5718;SDS011;2884;47.734;9.244;2022-09-25T14:06:37;7.50;;;3.40;;
5718;SDS011;2884;47.734;9.244;2022-09-25T14:09:11;5.17;;;3.30;;
5718;SDS011;2884;47.734;9.244;2022-09-25T14:11:39;3.70;;;3.20;;
5718;SDS011;2884;47.734;9.244;2022-09-25T14:14:08;3.20;;;3.00;;
5718;SDS011;2884;47.734;9.244;2022-09-25T14:16:43;4.93;;;2.70;;
5718;SDS011;2884;47.734;9.244;2022-09-25T14:19:16;6.03;;;2.67;;
5718;SDS011;2884;47.734;9.244;2022-09-25T14:21:43;2.90;;;2.67;;
5718;SDS011;2884;47.734;9.244;2022-09-25T14:26:48;2.70;;;2.50;;
5718;SDS011;2884;47.734;9.244;2022-09-25T14:29:16;3.70;;;2.40;;
5718;SDS011;2884;47.734;9.244;2022-09-25T14:45:23;2.57;;;2.17;;
5718;SDS011;2884;47.734;9.244;2022-09-25T14:47:56;2.50;;;2.30;;
5718;SDS011;2884;47.734;9.244;2022-09-25T14:51:06;3.97;;;2.60;;
5718;SDS011;2884;47.734;9.244;2022-09-25T14:53:20;3.23;;;2.60;;
5718;SDS011;2884;47.734;9.244;2022-09-25T14:55:51;2.93;;;2.40;;
5718;SDS011;2884;47.734;9.244;2022-09-25T14:58:19;3.60;;;2.47;;
5718;SDS011;2884;47.734;9.244;2022-09-25T15:00:50;3.40;;;2.60;;
5718;SDS011;2884;47.734;9.244;2022-09-25T15:03:18;7.40;;;2.57;;
5718;SDS011;2884;47.734;9.244;2022-09-25T15:05:46;2.57;;;2.37;;
5718;SDS011;2884;47.734;9.244;2022-09-25T15:08:30;3.10;;;2.33;;
5718;SDS011;2884;47.734;9.244;2022-09-25T15:11:11;3.10;;;2.10;;
5718;SDS011;2884;47.734;9.244;2022-09-25T15:13:38;2.43;;;2.10;;
5718;SDS011;2884;47.734;9.244;2022-09-25T15:16:05;2.50;;;2.30;;
5718;SDS011;2884;47.734;9.244;2022-09-25T15:18:53;4.47;;;2.70;;
5718;SDS011;2884;47.734;9.244;2022-09-25T15:21:31;6.40;;;2.80;;
5718;SDS011;2884;47.734;9.244;2022-09-25T15:24:03;3.80;;;3.10;;
5718;SDS011;2884;47.734;9.244;2022-09-25T15:26:30;3.10;;;2.80;;
5718;SDS011;2884;47.734;9.244;2022-09-25T15:28:56;3.80;;;2.67;;
5718;SDS011;2884;47.734;9.244;2022-09-25T15:31:22;2.50;;;2.30;;
5718;SDS011;2884;47.734;9.244;2022-09-25T15:34:03;3.10;;;2.90;;
5718;SDS011;2884;47.734;9.244;2022-09-25T15:36:36;3.50;;;3.20;;
5718;SDS011;2884;47.734;9.244;2022-09-25T15:39:08;6.60;;;3.10;;
5718;SDS011;2884;47.734;9.244;2022-09-25T15:41:37;4.00;;;3.00;;
5718;SDS011;2884;47.734;9.244;2022-09-25T15:44:16;3.83;;;3.53;;
5718;SDS011;2884;47.734;9.244;2022-09-25T15:46:44;4.40;;;4.00;;
5718;SDS011;2884;47.734;9.244;2022-09-25T15:49:13;7.50;;;5.13;;
5718;SDS011;2884;47.734;9.244;2022-09-25T15:51:43;5.83;;;5.20;;
5718;SDS011;2884;47.734;9.244;2022-09-25T15:54:34;7.13;;;6.43;;
5718;SDS011;2884;47.734;9.244;2022-09-25T15:57:05;6.87;;;6.37;;
5718;SDS011;2884;47.734;9.244;2022-09-25T15:59:37;8.70;;;7.90;;
5718;SDS011;2884;47.734;9.244;2022-09-25T16:02:35;7.67;;;7.10;;
5718;SDS011;2884;47.734;9.244;2022-09-25T16:05:28;8.20;;;7.60;;
5718;SDS011;2884;47.734;9.244;2022-09-25T16:13:38;9.97;;;9.37;;
5718;SDS011;2884;47.734;9.244;2022-09-25T16:16:15;10.67;;;9.60;;
5718;SDS011;2884;47.734;9.244;2022-09-25T16:18:45;10.87;;;9.93;;
5718;SDS011;2884;47.734;9.244;2022-09-25T16:21:15;13.07;;;12.07;;
5718;SDS011;2884;47.734;9.244;2022-09-25T16:23:51;13.30;;;12.40;;
5718;SDS011;2884;47.734;9.244;2022-09-25T16:26:20;12.60;;;11.70;;
5718;SDS011;2884;47.734;9.244;2022-09-25T16:28:51;14.57;;;13.17;;
5718;SDS011;2884;47.734;9.244;2022-09-25T16:31:20;13.20;;;12.40;;
5718;SDS011;2884;47.734;9.244;2022-09-25T16:33:47;13.80;;;12.90;;
5718;SDS011;2884;47.734;9.244;2022-09-25T16:36:14;14.00;;;12.93;;
5718;SDS011;2884;47.734;9.244;2022-09-25T16:38:41;14.87;;;13.90;;
5718;SDS011;2884;47.734;9.244;2022-09-25T16:41:20;14.10;;;12.90;;
5718;SDS011;2884;47.734;9.244;2022-09-25T16:44:00;15.20;;;14.10;;
5718;SDS011;2884;47.734;9.244;2022-09-25T16:46:38;17.13;;;15.67;;
5718;SDS011;2884;47.734;9.244;2022-09-25T16:49:07;19.20;;;18.00;;
5718;SDS011;2884;47.734;9.244;2022-09-25T16:51:33;18.80;;;17.53;;
5718;SDS011;2884;47.734;9.244;2022-09-25T16:53:59;18.30;;;17.00;;
5718;SDS011;2884;47.734;9.244;2022-09-25T16:56:26;17.17;;;16.07;;
5718;SDS011;2884;47.734;9.244;2022-09-25T16:58:54;20.87;;;19.53;;
5718;SDS011;2884;47.734;9.244;2022-09-25T17:01:20;19.33;;;18.13;;
5718;SDS011;2884;47.734;9.244;2022-09-25T17:03:47;19.17;;;17.97;;
5718;SDS011;2884;47.734;9.244;2022-09-25T17:06:17;19.80;;;18.60;;
5718;SDS011;2884;47.734;9.244;2022-09-25T17:08:43;20.30;;;19.10;;
5718;SDS011;2884;47.734;9.244;2022-09-25T17:11:13;20.60;;;18.90;;
5718;SDS011;2884;47.734;9.244;2022-09-25T17:13:39;20.20;;;19.00;;
5718;SDS011;2884;47.734;9.244;2022-09-25T17:16:06;19.53;;;18.43;;
5718;SDS011;2884;47.734;9.244;2022-09-25T17:18:32;19.93;;;18.73;;
5718;SDS011;2884;47.734;9.244;2022-09-25T17:20:58;21.33;;;20.10;;
5718;SDS011;2884;47.734;9.244;2022-09-25T17:23:26;22.93;;;21.60;;
5718;SDS011;2884;47.734;9.244;2022-09-25T17:26:03;23.40;;;21.63;;
5718;SDS011;2884;47.734;9.244;2022-09-25T17:28:29;22.60;;;21.23;;
5718;SDS011;2884;47.734;9.244;2022-09-25T17:30:58;22.70;;;21.20;;
5718;SDS011;2884;47.734;9.244;2022-09-25T17:33:25;26.17;;;24.67;;
5718;SDS011;2884;47.734;9.244;2022-09-25T17:36:01;23.50;;;21.93;;
5718;SDS011;2884;47.734;9.244;2022-09-25T17:38:29;26.60;;;24.90;;
5718;SDS011;2884;47.734;9.244;2022-09-25T17:40:56;27.17;;;25.50;;
5718;SDS011;2884;47.734;9.244;2022-09-25T17:43:22;26.53;;;24.73;;
5718;SDS011;2884;47.734;9.244;2022-09-25T17:48:18;27.50;;;25.77;;
5718;SDS011;2884;47.734;9.244;2022-09-25T17:50:49;28.97;;;27.07;;
5718;SDS011;2884;47.734;9.244;2022-09-25T17:53:37;28.80;;;27.00;;
5718;SDS011;2884;47.734;9.244;2022-09-25T17:56:03;31.37;;;29.20;;
5718;SDS011;2884;47.734;9.244;2022-09-25T17:58:29;30.90;;;28.73;;
5718;SDS011;2884;47.734;9.244;2022-09-25T18:00:56;28.40;;;26.60;;
5718;SDS011;2884;47.734;9.244;2022-09-25T18:03:24;27.30;;;25.30;;
5718;SDS011;2884;47.734;9.244;2022-09-25T18:05:49;27.53;;;25.73;;
5718;SDS011;2884;47.734;9.244;2022-09-25T18:08:15;28.90;;;26.93;;
5718;SDS011;2884;47.734;9.244;2022-09-25T18:10:42;28.57;;;26.60;;
5718;SDS011;2884;47.734;9.244;2022-09-25T18:13:10;31.63;;;29.37;;
5718;SDS011;2884;47.734;9.244;2022-09-25T18:15:40;28.70;;;26.70;;
5718;SDS011;2884;47.734;9.244;2022-09-25T18:18:14;25.70;;;24.10;;
5718;SDS011;2884;47.734;9.244;2022-09-25T18:20:39;26.90;;;25.17;;
5718;SDS011;2884;47.734;9.244;2022-09-25T18:23:24;27.67;;;26.00;;
5718;SDS011;2884;47.734;9.244;2022-09-25T18:25:49;27.43;;;25.73;;
5718;SDS011;2884;47.734;9.244;2022-09-25T18:28:15;30.40;;;28.43;;
5718;SDS011;2884;47.734;9.244;2022-09-25T18:30:42;30.90;;;28.97;;